createdAt,value
2018-07-02T00:00:20.000Z,100444
2018-07-02T00:02:20.000Z,100441
2018-07-02T00:04:20.000Z,100437
2018-07-02T00:05:20.000Z,100436
2018-07-02T00:07:20.000Z,100432
2018-07-02T00:09:20.000Z,100429
2018-07-02T00:10:20.000Z,100434
2018-07-02T00:11:20.000Z,100435
2018-07-02T00:13:05.000Z,100432
2018-07-02T00:14:20.000Z,100434
2018-07-02T00:16:20.000Z,100431
2018-07-02T00:18:20.000Z,100432
2018-07-02T00:19:20.000Z,100430
2018-07-02T00:20:20.000Z,100423
2018-07-02T00:22:05.000Z,100426
2018-07-02T00:23:20.000Z,100421
2018-07-02T00:24:20.000Z,100422
2018-07-02T00:26:20.000Z,100413
2018-07-02T00:28:20.000Z,100412
2018-07-02T00:29:20.000Z,100413
2018-07-02T00:31:20.000Z,100409
2018-07-02T00:33:20.000Z,100412
2018-07-02T00:35:19.000Z,100408
2018-07-02T00:39:05.000Z,100403
2018-07-02T00:40:05.000Z,100402
2018-07-02T00:41:50.000Z,100404
2018-07-02T00:43:05.000Z,100404
2018-07-02T00:45:05.000Z,100399
2018-07-02T00:46:05.000Z,100404
2018-07-02T00:48:05.000Z,100401
2018-07-02T00:50:05.000Z,100402
2018-07-02T00:51:05.000Z,100403
2018-07-02T00:53:05.000Z,100394
2018-07-02T00:55:05.000Z,100398
2018-07-02T00:56:05.000Z,100398
2018-07-02T00:58:05.000Z,100399
2018-07-02T00:59:05.000Z,100396
2018-07-02T01:01:05.000Z,100387
2018-07-02T01:02:05.000Z,100388
2018-07-02T01:03:50.000Z,100390
2018-07-02T01:05:05.000Z,100388
2018-07-02T01:06:50.000Z,100385
2018-07-02T01:08:05.000Z,100390
2018-07-02T01:10:05.000Z,100388
2018-07-02T01:11:05.000Z,100387
2018-07-02T01:12:50.000Z,100386
2018-07-02T01:14:05.000Z,100380
2018-07-02T01:16:05.000Z,100381
2018-07-02T01:18:05.000Z,100380
2018-07-02T01:20:05.000Z,100379
2018-07-02T01:21:50.000Z,100379
2018-07-02T01:23:05.000Z,100375
2018-07-02T01:24:05.000Z,100372
2018-07-02T01:26:05.000Z,100373
2018-07-02T01:28:05.000Z,100376
2018-07-02T01:29:50.000Z,100372
2018-07-02T01:31:05.000Z,100374
2018-07-02T01:33:05.000Z,100373
2018-07-02T01:35:05.000Z,100376
2018-07-02T01:37:05.000Z,100380
2018-07-02T01:38:05.000Z,100380
2018-07-02T01:40:05.000Z,100379
2018-07-02T01:41:05.000Z,100376
2018-07-02T01:43:05.000Z,100377
2018-07-02T01:45:05.000Z,100379
2018-07-02T01:46:05.000Z,100377
2018-07-02T01:48:05.000Z,100378
2018-07-02T01:49:05.000Z,100379
2018-07-02T01:51:05.000Z,100377
2018-07-02T01:52:05.000Z,100376
2018-07-02T01:54:05.000Z,100378
2018-07-02T01:55:05.000Z,100382
2018-07-02T01:56:05.000Z,100378
2018-07-02T01:58:05.000Z,100376
2018-07-02T02:00:05.000Z,100385
2018-07-02T02:02:05.000Z,100385
2018-07-02T02:03:50.000Z,100387
2018-07-02T02:05:05.000Z,100381
2018-07-02T02:07:05.000Z,100381
2018-07-02T02:09:05.000Z,100384
2018-07-02T02:10:05.000Z,100392
2018-07-02T02:12:05.000Z,100389
2018-07-02T02:14:05.000Z,100396
2018-07-02T02:15:05.000Z,100397
2018-07-02T02:17:05.000Z,100407
2018-07-02T02:19:05.000Z,100398
2018-07-02T02:21:05.000Z,100397
2018-07-02T02:22:05.000Z,100395
2018-07-02T02:24:05.000Z,100397
2018-07-02T02:25:05.000Z,100393
2018-07-02T02:26:50.000Z,100397
2018-07-02T02:28:05.000Z,100393
2018-07-02T02:30:05.000Z,100405
2018-07-02T02:32:05.000Z,100402
2018-07-02T02:33:05.000Z,100397
2018-07-02T02:35:05.000Z,100398
2018-07-02T02:36:05.000Z,100399
2018-07-02T02:38:05.000Z,100397
2018-07-02T02:39:50.000Z,100391
2018-07-02T02:41:05.000Z,100391
2018-07-02T02:43:05.000Z,100392
2018-07-02T02:45:05.000Z,100387
2018-07-02T02:46:05.000Z,100390
2018-07-02T02:47:05.000Z,100388
2018-07-02T02:49:05.000Z,100384
2018-07-02T02:50:35.000Z,100384
2018-07-02T02:52:05.000Z,100387
2018-07-02T02:53:05.000Z,100385
2018-07-02T02:55:05.000Z,100384
2018-07-02T02:57:05.000Z,100392
2018-07-02T02:58:05.000Z,100391
2018-07-02T03:00:05.000Z,100387
2018-07-02T03:02:05.000Z,100391
2018-07-02T03:03:05.000Z,100392
2018-07-02T03:05:05.000Z,100389
2018-07-02T03:07:05.000Z,100391
2018-07-02T03:09:05.000Z,100397
2018-07-02T03:10:50.000Z,100399
2018-07-02T03:12:05.000Z,100403
2018-07-02T03:14:05.000Z,100394
2018-07-02T03:15:05.000Z,100397
2018-07-02T03:17:05.000Z,100395
2018-07-02T03:18:05.000Z,100405
2018-07-02T03:20:05.000Z,100404
2018-07-02T03:21:05.000Z,100407
2018-07-02T03:23:05.000Z,100405
2018-07-02T03:25:05.000Z,100403
2018-07-02T03:27:05.000Z,100404
2018-07-02T03:28:50.000Z,100404
2018-07-02T03:30:05.000Z,100409
2018-07-02T03:32:05.000Z,100395
2018-07-02T03:33:05.000Z,100396
2018-07-02T03:35:05.000Z,100396
2018-07-02T03:36:05.000Z,100401
2018-07-02T03:38:05.000Z,100400
2018-07-02T03:39:50.000Z,100405
2018-07-02T03:41:05.000Z,100403
2018-07-02T03:42:05.000Z,100403
2018-07-02T03:43:05.000Z,100402
2018-07-02T03:44:50.000Z,100394
2018-07-02T03:46:06.000Z,100399
2018-07-02T03:47:06.000Z,100401
2018-07-02T03:49:06.000Z,100398
2018-07-02T03:50:06.000Z,100397
2018-07-02T03:52:06.000Z,100403
2018-07-02T03:54:06.000Z,100408
2018-07-02T03:55:06.000Z,100409
2018-07-02T03:57:05.000Z,100412
2018-07-02T03:58:06.000Z,100415
2018-07-02T03:59:06.000Z,100422
2018-07-02T04:00:06.000Z,100416
2018-07-02T04:02:06.000Z,100413
2018-07-02T04:03:50.000Z,100420
2018-07-02T04:05:06.000Z,100421
2018-07-02T04:06:06.000Z,100424
2018-07-02T04:08:06.000Z,100421
2018-07-02T04:10:06.000Z,100426
2018-07-02T04:12:06.000Z,100426
2018-07-02T04:13:06.000Z,100434
2018-07-02T04:15:06.000Z,100427
2018-07-02T04:17:06.000Z,100434
2018-07-02T04:19:06.000Z,100432
2018-07-02T04:21:06.000Z,100433
2018-07-02T04:22:06.000Z,100430
2018-07-02T04:24:06.000Z,100425
2018-07-02T04:25:06.000Z,100432
2018-07-02T04:26:06.000Z,100431
2018-07-02T04:28:06.000Z,100437
2018-07-02T04:30:06.000Z,100441
2018-07-02T04:31:50.000Z,100438
2018-07-02T04:33:06.000Z,100438
2018-07-02T04:35:06.000Z,100439
2018-07-02T04:37:06.000Z,100439
2018-07-02T04:39:06.000Z,100442
2018-07-02T04:41:06.000Z,100438
2018-07-02T04:43:06.000Z,100438
2018-07-02T04:45:06.000Z,100437
2018-07-02T04:47:06.000Z,100447
2018-07-02T04:48:06.000Z,100441
2018-07-02T04:49:06.000Z,100443
2018-07-02T04:51:06.000Z,100446
2018-07-02T04:53:06.000Z,100450
2018-07-02T04:55:06.000Z,100450
2018-07-02T04:57:06.000Z,100444
2018-07-02T04:59:06.000Z,100448
2018-07-02T05:00:06.000Z,100447
2018-07-02T05:01:35.000Z,100450
2018-07-02T05:03:06.000Z,100452
2018-07-02T05:04:06.000Z,100450
2018-07-02T05:06:06.000Z,100455
2018-07-02T05:07:06.000Z,100457
2018-07-02T05:09:06.000Z,100447
2018-07-02T05:11:06.000Z,100452
2018-07-02T05:12:06.000Z,100447
2018-07-02T05:13:50.000Z,100456
2018-07-02T05:15:06.000Z,100453
2018-07-02T05:17:06.000Z,100456
2018-07-02T05:18:50.000Z,100455
2018-07-02T05:19:50.000Z,100457
2018-07-02T05:21:06.000Z,100451
2018-07-02T05:23:06.000Z,100448
2018-07-02T05:24:06.000Z,100447
2018-07-02T05:25:06.000Z,100450
2018-07-02T05:26:50.000Z,100449
2018-07-02T05:28:06.000Z,100446
2018-07-02T05:29:06.000Z,100443
2018-07-02T05:31:06.000Z,100446
2018-07-02T05:32:06.000Z,100446
2018-07-02T05:34:06.000Z,100444
2018-07-02T05:35:06.000Z,100445
2018-07-02T05:37:06.000Z,100441
2018-07-02T05:39:06.000Z,100437
2018-07-02T05:40:50.000Z,100437
2018-07-02T05:42:06.000Z,100432
2018-07-02T05:44:06.000Z,100427
2018-07-02T05:46:06.000Z,100426
2018-07-02T05:48:06.000Z,100426
2018-07-02T05:50:06.000Z,100432
2018-07-02T05:51:50.000Z,100427
2018-07-02T05:53:06.000Z,100427
2018-07-02T05:54:50.000Z,100429
2018-07-02T05:56:05.000Z,100425
2018-07-02T05:58:05.000Z,100417
2018-07-02T06:00:05.000Z,100416
2018-07-02T06:01:05.000Z,100419
2018-07-02T06:02:50.000Z,100422
2018-07-02T06:04:05.000Z,100417
2018-07-02T06:05:05.000Z,100420
2018-07-02T06:07:05.000Z,100420
2018-07-02T06:09:05.000Z,100417
2018-07-02T06:11:05.000Z,100421
2018-07-02T06:13:05.000Z,100417
2018-07-02T06:15:05.000Z,100416
2018-07-02T06:17:05.000Z,100418
2018-07-02T06:19:05.000Z,100418
2018-07-02T06:20:05.000Z,100419
2018-07-02T06:22:05.000Z,100424
2018-07-02T06:24:05.000Z,100421
2018-07-02T06:25:50.000Z,100424
2018-07-02T06:27:05.000Z,100424
2018-07-02T06:28:05.000Z,100428
2018-07-02T06:29:50.000Z,100430
2018-07-02T06:31:05.000Z,100423
2018-07-02T06:33:05.000Z,100426
2018-07-02T06:34:50.000Z,100425
2018-07-02T06:36:05.000Z,100424
2018-07-02T06:37:05.000Z,100427
2018-07-02T06:38:50.000Z,100431
2018-07-02T06:40:05.000Z,100429
2018-07-02T06:41:05.000Z,100436
2018-07-02T06:42:05.000Z,100436
2018-07-02T06:44:05.000Z,100435
2018-07-02T06:45:35.000Z,100437
2018-07-02T06:47:05.000Z,100443
2018-07-02T06:49:05.000Z,100437
2018-07-02T06:50:50.000Z,100443
2018-07-02T06:52:05.000Z,100441
2018-07-02T06:53:05.000Z,100434
2018-07-02T06:55:05.000Z,100436
2018-07-02T06:57:05.000Z,100439
2018-07-02T06:58:05.000Z,100435
2018-07-02T06:59:05.000Z,100435
2018-07-02T07:01:05.000Z,100432
2018-07-02T07:03:05.000Z,100429
2018-07-02T07:05:05.000Z,100435
2018-07-02T07:06:05.000Z,100431
2018-07-02T07:08:05.000Z,100437
2018-07-02T07:10:05.000Z,100436
2018-07-02T07:11:05.000Z,100435
2018-07-02T07:13:05.000Z,100428
2018-07-02T07:15:05.000Z,100431
2018-07-02T07:16:05.000Z,100429
2018-07-02T07:18:05.000Z,100431
2018-07-02T07:19:05.000Z,100426
2018-07-02T07:20:05.000Z,100432
2018-07-02T07:22:05.000Z,100428
2018-07-02T07:23:05.000Z,100423
2018-07-02T07:25:05.000Z,100425
2018-07-02T07:26:05.000Z,100432
2018-07-02T07:28:05.000Z,100434
2018-07-02T07:29:05.000Z,100432
2018-07-02T07:31:05.000Z,100441
2018-07-02T07:33:05.000Z,100437
2018-07-02T07:35:05.000Z,100431
2018-07-02T07:36:05.000Z,100430
2018-07-02T07:38:05.000Z,100426
2018-07-02T07:39:05.000Z,100430
2018-07-02T07:41:05.000Z,100433
2018-07-02T07:42:05.000Z,100437
2018-07-02T07:43:05.000Z,100441
2018-07-02T07:45:05.000Z,100437
2018-07-02T07:47:05.000Z,100444
2018-07-02T07:48:50.000Z,100438
2018-07-02T07:50:05.000Z,100443
2018-07-02T07:51:05.000Z,100440
2018-07-02T07:52:05.000Z,100448
2018-07-02T07:54:05.000Z,100444
2018-07-02T07:56:05.000Z,100449
2018-07-02T07:58:05.000Z,100445
2018-07-02T08:00:05.000Z,100449
2018-07-02T08:01:06.000Z,100447
2018-07-02T08:03:06.000Z,100446
2018-07-02T08:04:06.000Z,100444
2018-07-02T08:05:06.000Z,100439
2018-07-02T08:07:06.000Z,100433
2018-07-02T08:08:06.000Z,100439
2018-07-02T08:10:06.000Z,100442
2018-07-02T08:12:06.000Z,100443
2018-07-02T08:14:06.000Z,100442
2018-07-02T08:16:06.000Z,100441
2018-07-02T08:18:06.000Z,100432
2018-07-02T08:19:06.000Z,100440
2018-07-02T08:21:06.000Z,100434
2018-07-02T08:22:06.000Z,100430
2018-07-02T08:24:06.000Z,100430
2018-07-02T08:25:50.000Z,100429
2018-07-02T08:27:06.000Z,100428
2018-07-02T08:28:06.000Z,100424
2018-07-02T08:29:50.000Z,100429
2018-07-02T08:31:06.000Z,100429
2018-07-02T08:33:06.000Z,100439
2018-07-02T08:34:06.000Z,100436
2018-07-02T08:35:06.000Z,100429
2018-07-02T08:37:06.000Z,100430
2018-07-02T08:38:06.000Z,100433
2018-07-02T08:39:06.000Z,100430
2018-07-02T08:41:06.000Z,100424
2018-07-02T08:42:06.000Z,100427
2018-07-02T08:44:06.000Z,100426
2018-07-02T08:45:06.000Z,100425
2018-07-02T08:47:06.000Z,100418
2018-07-02T08:48:50.000Z,100420
2018-07-02T08:50:06.000Z,100416
2018-07-02T08:52:06.000Z,100422
2018-07-02T08:57:06.000Z,100429
2018-07-02T08:58:52.000Z,100416
2018-07-02T08:59:52.000Z,100429
2018-07-02T09:00:52.000Z,100421
2018-07-02T09:02:52.000Z,100429
2018-07-02T09:04:52.000Z,100435
2018-07-02T09:05:52.000Z,100431
2018-07-02T09:07:52.000Z,100440
2018-07-02T09:08:52.000Z,100442
2018-07-02T09:10:52.000Z,100437
2018-07-02T09:11:52.000Z,100428
2018-07-02T09:13:52.000Z,100421
2018-07-02T09:14:52.000Z,100424
2018-07-02T09:16:52.000Z,100415
2018-07-02T09:18:52.000Z,100412
2018-07-02T09:20:52.000Z,100414
2018-07-02T09:21:52.000Z,100412
2018-07-02T09:23:52.000Z,100410
2018-07-02T09:25:37.000Z,100423
2018-07-02T09:26:52.000Z,100425
2018-07-02T09:27:52.000Z,100426
2018-07-02T09:29:52.000Z,100421
2018-07-02T09:30:52.000Z,100412
2018-07-02T09:32:21.000Z,100415
2018-07-02T09:33:52.000Z,100411
2018-07-02T09:35:52.000Z,100414
2018-07-02T09:37:37.000Z,100414
2018-07-02T09:38:52.000Z,100423
2018-07-02T09:40:21.000Z,100416
2018-07-02T09:41:52.000Z,100414
2018-07-02T09:43:52.000Z,100418
2018-07-02T09:45:52.000Z,100410
2018-07-02T09:47:52.000Z,100405
2018-07-02T09:49:52.000Z,100402
2018-07-02T09:51:52.000Z,100403
2018-07-02T09:52:52.000Z,100405
2018-07-02T09:54:37.000Z,100402
2018-07-02T09:55:52.000Z,100406
2018-07-02T09:56:52.000Z,100404
2018-07-02T09:58:52.000Z,100402
2018-07-02T10:00:52.000Z,100416
2018-07-02T10:01:52.000Z,100405
2018-07-02T10:03:52.000Z,100411
2018-07-02T10:04:52.000Z,100414
2018-07-02T10:05:52.000Z,100413
2018-07-02T10:07:51.000Z,100414
2018-07-02T10:09:51.000Z,100418
2018-07-02T10:10:51.000Z,100411
2018-07-02T10:12:51.000Z,100413
2018-07-02T10:14:51.000Z,100415
2018-07-02T10:16:51.000Z,100413
2018-07-02T10:18:51.000Z,100406
2018-07-02T10:19:51.000Z,100418
2018-07-02T10:21:51.000Z,100415
2018-07-02T10:23:51.000Z,100415
2018-07-02T10:24:51.000Z,100403
2018-07-02T10:28:37.000Z,100400
2018-07-02T10:29:37.000Z,100395
2018-07-02T10:30:37.000Z,100397
2018-07-02T10:31:37.000Z,100407
2018-07-02T10:33:37.000Z,100408
2018-07-02T10:34:37.000Z,100408
2018-07-02T10:36:37.000Z,100403
2018-07-02T10:37:37.000Z,100413
2018-07-02T10:39:37.000Z,100411
2018-07-02T10:41:22.000Z,100404
2018-07-02T10:42:37.000Z,100396
2018-07-02T10:43:37.000Z,100403
2018-07-02T10:45:37.000Z,100396
2018-07-02T10:46:37.000Z,100397
2018-07-02T10:48:37.000Z,100405
2018-07-02T10:49:37.000Z,100402
2018-07-02T10:51:37.000Z,100401
2018-07-02T10:53:37.000Z,100397
2018-07-02T10:55:37.000Z,100398
2018-07-02T10:57:37.000Z,100398
2018-07-02T10:59:37.000Z,100396
2018-07-02T11:01:37.000Z,100403
2018-07-02T11:03:37.000Z,100398
2018-07-02T11:04:37.000Z,100396
2018-07-02T11:06:37.000Z,100397
2018-07-02T11:08:37.000Z,100398
2018-07-02T11:09:37.000Z,100391
2018-07-02T11:11:22.000Z,100389
2018-07-02T11:12:37.000Z,100389
2018-07-02T11:14:37.000Z,100391
2018-07-02T11:16:37.000Z,100394
2018-07-02T11:17:37.000Z,100395
2018-07-02T11:19:37.000Z,100387
2018-07-02T11:21:37.000Z,100390
2018-07-02T11:23:37.000Z,100390
2018-07-02T11:25:37.000Z,100384
2018-07-02T11:27:37.000Z,100377
2018-07-02T11:29:37.000Z,100377
2018-07-02T11:31:37.000Z,100377
2018-07-02T11:32:37.000Z,100382
2018-07-02T11:34:37.000Z,100382
2018-07-02T11:36:37.000Z,100380
2018-07-02T11:38:22.000Z,100375
2018-07-02T11:40:37.000Z,100373
2018-07-02T11:42:22.000Z,100277
2018-07-02T11:43:37.000Z,100376
2018-07-02T11:45:37.000Z,100380
2018-07-02T11:47:37.000Z,100380
2018-07-02T11:48:37.000Z,100380
2018-07-02T11:50:37.000Z,100372
2018-07-02T11:51:37.000Z,100374
2018-07-02T11:53:37.000Z,100365
2018-07-02T11:55:37.000Z,100375
2018-07-02T11:57:37.000Z,100371
2018-07-02T11:59:37.000Z,100366
2018-07-02T12:01:37.000Z,100363
2018-07-02T12:03:37.000Z,100366
2018-07-02T12:05:37.000Z,100361
2018-07-02T12:06:37.000Z,100370
2018-07-02T12:08:37.000Z,100361
2018-07-02T12:09:37.000Z,100363
2018-07-02T12:11:37.000Z,100371
2018-07-02T12:12:37.000Z,100373
2018-07-02T12:14:22.000Z,100375
2018-07-02T12:15:37.000Z,100377
2018-07-02T12:16:37.000Z,100370
2018-07-02T12:18:37.000Z,100376
2018-07-02T12:20:22.000Z,100385
2018-07-02T12:21:37.000Z,100384
2018-07-02T12:23:22.000Z,100382
2018-07-02T12:24:37.000Z,100381
2018-07-02T12:26:37.000Z,100382
2018-07-02T12:28:37.000Z,100381
2018-07-02T12:29:37.000Z,100386
2018-07-02T12:31:37.000Z,100381
2018-07-02T12:33:37.000Z,100388
2018-07-02T12:35:37.000Z,100389
2018-07-02T12:36:37.000Z,100385
2018-07-02T12:38:37.000Z,100383
2018-07-02T12:40:37.000Z,100380
2018-07-02T12:41:37.000Z,100379
2018-07-02T12:43:37.000Z,100383
2018-07-02T12:45:37.000Z,100388
2018-07-02T12:47:22.000Z,100381
2018-07-02T12:48:37.000Z,100379
2018-07-02T12:49:37.000Z,100385
2018-07-02T12:50:37.000Z,100383
2018-07-02T12:52:37.000Z,100381
2018-07-02T12:54:37.000Z,100370
2018-07-02T12:56:37.000Z,100373
2018-07-02T12:58:37.000Z,100377
2018-07-02T13:00:37.000Z,100376
2018-07-02T13:01:37.000Z,100375
2018-07-02T13:03:37.000Z,100374
2018-07-02T13:05:37.000Z,100371
2018-07-02T13:06:37.000Z,100365
2018-07-02T13:08:37.000Z,100370
2018-07-02T13:09:37.000Z,100368
2018-07-02T13:11:37.000Z,100372
2018-07-02T13:13:37.000Z,100361
2018-07-02T13:15:37.000Z,100359
2018-07-02T13:16:37.000Z,100358
2018-07-02T13:18:37.000Z,100355
2018-07-02T13:20:37.000Z,100356
2018-07-02T13:21:37.000Z,100355
2018-07-02T13:22:37.000Z,100358
2018-07-02T13:24:37.000Z,100359
2018-07-02T13:26:37.000Z,100361
2018-07-02T13:28:37.000Z,100359
2018-07-02T13:30:37.000Z,100356
2018-07-02T13:32:37.000Z,100349
2018-07-02T13:33:37.000Z,100352
2018-07-02T13:35:37.000Z,100349
2018-07-02T13:37:37.000Z,100354
2018-07-02T13:39:37.000Z,100355
2018-07-02T13:41:37.000Z,100350
2018-07-02T13:43:37.000Z,100350
2018-07-02T13:45:37.000Z,100351
2018-07-02T13:47:37.000Z,100354
2018-07-02T13:49:22.000Z,100349
2018-07-02T13:50:37.000Z,100350
2018-07-02T13:52:37.000Z,100357
2018-07-02T13:53:37.000Z,100346
2018-07-02T13:54:37.000Z,100349
2018-07-02T13:56:22.000Z,100347
2018-07-02T13:57:37.000Z,100345
2018-07-02T13:59:37.000Z,100346
2018-07-02T14:01:37.000Z,100342
2018-07-02T14:02:37.000Z,100337
2018-07-02T14:04:37.000Z,100347
2018-07-02T14:06:37.000Z,100348
2018-07-02T14:08:37.000Z,100337
2018-07-02T14:10:37.000Z,100332
2018-07-02T14:11:37.000Z,100328
2018-07-02T14:13:37.000Z,100337
2018-07-02T14:15:37.000Z,100332
2018-07-02T14:16:37.000Z,100335
2018-07-02T14:18:37.000Z,100334
2018-07-02T14:20:37.000Z,100328
2018-07-02T14:21:37.000Z,100330
2018-07-02T14:22:37.000Z,100331
2018-07-02T14:24:22.000Z,100332
2018-07-02T14:25:22.000Z,100329
2018-07-02T14:26:37.000Z,100332
2018-07-02T14:27:37.000Z,100337
2018-07-02T14:29:37.000Z,100337
2018-07-02T14:31:37.000Z,100340
2018-07-02T14:33:22.000Z,100338
2018-07-02T14:34:22.000Z,100334
2018-07-02T14:35:37.000Z,100335
2018-07-02T14:37:38.000Z,100333
2018-07-02T14:39:37.000Z,100331
2018-07-02T14:41:38.000Z,100332
2018-07-02T14:43:38.000Z,100330
2018-07-02T14:45:23.000Z,100330
2018-07-02T14:46:38.000Z,100318
2018-07-02T14:48:37.000Z,100327
2018-07-02T14:50:37.000Z,100327
2018-07-02T14:52:22.000Z,100331
2018-07-02T14:53:37.000Z,100330
2018-07-02T14:55:37.000Z,100333
2018-07-02T14:57:22.000Z,100324
2018-07-02T14:58:37.000Z,100315
2018-07-02T14:59:37.000Z,100319
2018-07-02T15:01:37.000Z,100317
2018-07-02T15:03:37.000Z,100318
2018-07-02T15:05:37.000Z,100323
2018-07-02T15:07:37.000Z,100317
2018-07-02T15:08:37.000Z,100323
2018-07-02T15:10:37.000Z,100311
2018-07-02T15:12:38.000Z,100315
2018-07-02T15:14:37.000Z,100313
2018-07-02T15:16:37.000Z,100305
2018-07-02T15:18:22.000Z,100314
2018-07-02T15:19:37.000Z,100305
2018-07-02T15:20:37.000Z,100310
2018-07-02T15:21:37.000Z,100313
2018-07-02T15:23:37.000Z,100304
2018-07-02T15:24:38.000Z,100304
2018-07-02T15:26:37.000Z,100303
2018-07-02T15:28:37.000Z,100305
2018-07-02T15:29:37.000Z,100304
2018-07-02T15:31:22.000Z,100305
2018-07-02T15:32:37.000Z,100301
2018-07-02T15:33:37.000Z,100302
2018-07-02T15:35:37.000Z,100300
2018-07-02T15:37:37.000Z,100304
2018-07-02T15:38:37.000Z,100305
2018-07-02T15:40:37.000Z,100296
2018-07-02T15:42:37.000Z,100298
2018-07-02T15:43:37.000Z,100299
2018-07-02T15:45:37.000Z,100299
2018-07-02T15:47:37.000Z,100293
2018-07-02T15:49:37.000Z,100298
2018-07-02T15:50:37.000Z,100292
2018-07-02T15:52:37.000Z,100290
2018-07-02T15:54:07.000Z,100296
2018-07-02T15:55:37.000Z,100291
2018-07-02T15:57:37.000Z,100289
2018-07-02T15:59:37.000Z,100290
2018-07-02T16:00:37.000Z,100293
2018-07-02T16:02:37.000Z,100294
2018-07-02T16:04:22.000Z,100291
2018-07-02T16:05:37.000Z,100300
2018-07-02T16:07:22.000Z,100295
2018-07-02T16:08:37.000Z,100295
2018-07-02T16:10:07.000Z,100293
2018-07-02T16:11:37.000Z,100292
2018-07-02T16:13:37.000Z,100300
2018-07-02T16:15:07.000Z,100295
2018-07-02T16:16:37.000Z,100308
2018-07-02T16:18:37.000Z,100291
2018-07-02T16:20:22.000Z,100300
2018-07-02T16:21:37.000Z,100301
2018-07-02T16:23:37.000Z,100291
2018-07-02T16:24:37.000Z,100295
2018-07-02T16:25:37.000Z,100300
2018-07-02T16:27:37.000Z,100303
2018-07-02T16:29:37.000Z,100299
2018-07-02T16:31:37.000Z,100304
2018-07-02T16:33:37.000Z,100303
2018-07-02T16:35:37.000Z,100300
2018-07-02T16:36:37.000Z,100299
2018-07-02T16:37:37.000Z,100299
2018-07-02T16:39:22.000Z,100300
2018-07-02T16:40:37.000Z,100303
2018-07-02T16:42:37.000Z,100298
2018-07-02T16:44:37.000Z,100299
2018-07-02T16:46:37.000Z,100294
2018-07-02T16:48:07.000Z,100300
2018-07-02T16:49:37.000Z,100299
2018-07-02T16:51:22.000Z,100307
2018-07-02T16:52:37.000Z,100305
2018-07-02T16:54:22.000Z,100306
2018-07-02T16:55:22.000Z,100305
2018-07-02T16:56:37.000Z,100312
2018-07-02T16:58:22.000Z,100306
2018-07-02T16:59:37.000Z,100310
2018-07-02T17:01:37.000Z,100305
2018-07-02T17:03:37.000Z,100314
2018-07-02T17:05:37.000Z,100309
2018-07-02T17:06:37.000Z,100310
2018-07-02T17:07:37.000Z,100309
2018-07-02T17:09:22.000Z,100307
2018-07-02T17:10:37.000Z,100306
2018-07-02T17:12:37.000Z,100299
2018-07-02T17:14:37.000Z,100305
2018-07-02T17:16:37.000Z,100300
2018-07-02T17:18:37.000Z,100308
2018-07-02T17:20:22.000Z,100308
2018-07-02T17:21:22.000Z,100304
2018-07-02T17:22:37.000Z,100306
2018-07-02T17:24:37.000Z,100293
2018-07-02T17:25:37.000Z,100292
2018-07-02T17:27:37.000Z,100291
2018-07-02T17:29:22.000Z,100290
2018-07-02T17:30:37.000Z,100287
2018-07-02T17:32:38.000Z,100292
2018-07-02T17:34:38.000Z,100282
2018-07-02T17:35:38.000Z,100290
2018-07-02T17:37:38.000Z,100283
2018-07-02T17:38:38.000Z,100285
2018-07-02T17:40:22.000Z,100295
2018-07-02T17:41:38.000Z,100294
2018-07-02T17:42:38.000Z,100296
2018-07-02T17:44:22.000Z,100298
2018-07-02T17:45:38.000Z,100303
2018-07-02T17:47:38.000Z,100297
2018-07-02T17:48:38.000Z,100294
2018-07-02T17:49:38.000Z,100291
2018-07-02T17:51:38.000Z,100294
2018-07-02T17:52:38.000Z,100292
2018-07-02T17:54:38.000Z,100298
2018-07-02T17:56:38.000Z,100295
2018-07-02T17:57:38.000Z,100292
2018-07-02T17:59:38.000Z,100292
2018-07-02T18:00:38.000Z,100288
2018-07-02T18:02:22.000Z,100296
2018-07-02T18:03:38.000Z,100296
2018-07-02T18:04:38.000Z,100296
2018-07-02T18:05:38.000Z,100299
2018-07-02T18:06:38.000Z,100308
2018-07-02T18:08:38.000Z,100306
2018-07-02T18:10:38.000Z,100310
2018-07-02T18:11:38.000Z,100316
2018-07-02T18:13:38.000Z,100311
2018-07-02T18:15:38.000Z,100306
2018-07-02T18:16:38.000Z,100309
2018-07-02T18:18:38.000Z,100309
2018-07-02T18:19:38.000Z,100313
2018-07-02T18:21:22.000Z,100309
2018-07-02T18:22:38.000Z,100309
2018-07-02T18:24:22.000Z,100310
2018-07-02T18:25:38.000Z,100309
2018-07-02T18:26:38.000Z,100311
2018-07-02T18:27:38.000Z,100305
2018-07-02T18:29:38.000Z,100312
2018-07-02T18:31:38.000Z,100312
2018-07-02T18:33:38.000Z,100316
2018-07-02T18:34:38.000Z,100317
2018-07-02T18:35:38.000Z,100321
2018-07-02T18:37:38.000Z,100318
2018-07-02T18:39:38.000Z,100318
2018-07-02T18:40:38.000Z,100321
2018-07-02T18:41:38.000Z,100321
2018-07-02T18:43:38.000Z,100319
2018-07-02T18:44:38.000Z,100321
2018-07-02T18:45:38.000Z,100326
2018-07-02T18:47:38.000Z,100323
2018-07-02T18:48:38.000Z,100319
2018-07-02T18:49:38.000Z,100320
2018-07-02T18:51:38.000Z,100319
2018-07-02T18:53:38.000Z,100325
2018-07-02T18:54:38.000Z,100324
2018-07-02T18:55:38.000Z,100332
2018-07-02T18:57:23.000Z,100328
2018-07-02T18:58:38.000Z,100331
2018-07-02T19:00:38.000Z,100331
2018-07-02T19:02:38.000Z,100330
2018-07-02T19:04:38.000Z,100333
2018-07-02T19:06:38.000Z,100341
2018-07-02T19:08:23.000Z,100340
2018-07-02T19:10:38.000Z,100345
2018-07-02T19:12:38.000Z,100346
2018-07-02T19:14:38.000Z,100348
2018-07-02T19:16:38.000Z,100347
2018-07-02T19:18:38.000Z,100345
2018-07-02T19:20:38.000Z,100347
2018-07-02T19:22:38.000Z,100346
2018-07-02T19:24:23.000Z,100352
2018-07-02T19:25:38.000Z,100353
2018-07-02T19:27:38.000Z,100353
2018-07-02T19:28:38.000Z,100357
2018-07-02T19:30:38.000Z,100361
2018-07-02T19:32:38.000Z,100358
2018-07-02T19:33:38.000Z,100362
2018-07-02T19:35:38.000Z,100370
2018-07-02T19:37:38.000Z,100376
2018-07-02T19:39:38.000Z,100376
2018-07-02T19:41:38.000Z,100377
2018-07-02T19:43:38.000Z,100374
2018-07-02T19:44:38.000Z,100379
2018-07-02T19:46:38.000Z,100378
2018-07-02T19:48:38.000Z,100384
2018-07-02T19:50:38.000Z,100388
2018-07-02T19:52:07.000Z,100390
2018-07-02T19:53:38.000Z,100389
2018-07-02T19:54:38.000Z,100392
2018-07-02T19:56:38.000Z,100395
2018-07-02T19:57:38.000Z,100396
2018-07-02T19:59:38.000Z,100398
2018-07-02T20:01:07.000Z,100397
2018-07-02T20:02:38.000Z,100399
2018-07-02T20:03:38.000Z,100399
2018-07-02T20:05:38.000Z,100399
2018-07-02T20:06:38.000Z,100393
2018-07-02T20:08:38.000Z,100400
2018-07-02T20:10:38.000Z,100405
2018-07-02T20:12:38.000Z,100406